Alleyton, Texas
Current Conditions -  °F | °C
As of 1:15 AM on Saturday 29 Nov 2014 (Local Time) from K66R Reporting Station
Clear Clear  
Wind Chill: 53°   Ceiling: Unl
Heat Index: 53°   Visibility: 10mi
Dew Point: 53°   Wind: 3mph
Humidity: 99%   Direction: 180°S
Pressure: 30.1"   Gusts: NA
Location:  29.71°N, 96.49°W
Report Text: K66R 290715Z AUTO 18003KT 10SM CLR 12/11 A3010 RMK AO2 T01160114
Loading
Personal Weather Stations






























Interactive Weather Map New forecast layout! Learn more

10-Day Weather Forecast

Advertisements
Track Severe Weather on mobile